createdAt,value
2019-03-26T00:00:34.495Z,51.20
2019-03-26T00:03:03.000Z,52.80
2019-03-26T00:05:31.441Z,54.30
2019-03-26T00:07:59.868Z,55.30
2019-03-26T00:10:28.361Z,54.10
2019-03-26T00:12:56.808Z,54.20
2019-03-26T00:15:25.239Z,52.80
2019-03-26T00:17:53.666Z,53.30
2019-03-26T00:20:22.112Z,56.50
2019-03-26T00:22:50.578Z,51.70
2019-03-26T00:25:19.001Z,54.40
2019-03-26T00:27:47.448Z,52.10
2019-03-26T00:30:16.114Z,53.70
2019-03-26T00:32:44.864Z,50.70
2019-03-26T00:35:13.374Z,51.40
2019-03-26T00:37:41.800Z,49.80
2019-03-26T00:40:10.465Z,43.50
2019-03-26T00:42:38.990Z,44.90
2019-03-26T00:45:07.650Z,47.00
2019-03-26T00:47:36.072Z,44.40
2019-03-26T00:50:06.132Z,42.20
2019-03-26T00:52:34.561Z,40.00
2019-03-26T00:55:03.256Z,36.70
2019-03-26T00:57:31.777Z,38.10
2019-03-26T01:00:00.460Z,33.90
2019-03-26T01:02:29.016Z,32.60
2019-03-26T01:04:57.636Z,28.70
2019-03-26T01:07:26.501Z,27.30
2019-03-26T01:09:55.423Z,28.70
2019-03-26T01:12:24.414Z,30.90
2019-03-26T01:14:53.304Z,28.70
2019-03-26T01:17:22.098Z,28.60
2019-03-26T01:19:50.508Z,30.10
2019-03-26T01:22:18.936Z,31.70
2019-03-26T01:24:47.456Z,28.80
2019-03-26T01:27:15.909Z,29.10
2019-03-26T01:29:44.333Z,28.00
2019-03-26T01:32:12.765Z,25.50
2019-03-26T01:34:46.242Z,28.50
2019-03-26T01:37:11.361Z,29.70
2019-03-26T01:39:39.789Z,29.00
2019-03-26T01:42:08.232Z,27.30
2019-03-26T01:44:36.662Z,28.80
2019-03-26T01:47:05.155Z,28.50
2019-03-26T01:49:33.600Z,29.70
2019-03-26T01:52:02.024Z,29.70
2019-03-26T01:54:30.448Z,31.50
2019-03-26T01:56:58.896Z,31.00
2019-03-26T01:59:27.331Z,30.00
2019-03-26T02:01:55.764Z,30.80
2019-03-26T02:04:24.205Z,30.60
2019-03-26T02:06:52.653Z,30.60
2019-03-26T02:09:21.071Z,29.30
2019-03-26T02:11:49.516Z,29.80
2019-03-26T02:14:18.012Z,30.00
2019-03-26T02:16:46.516Z,32.20
2019-03-26T02:19:15.138Z,31.00
2019-03-26T02:21:43.682Z,33.70
2019-03-26T02:24:12.149Z,31.60
2019-03-26T02:26:40.613Z,28.90
2019-03-26T02:29:09.046Z,28.90
2019-03-26T02:31:37.478Z,27.90
2019-03-26T02:34:05.913Z,28.20
2019-03-26T02:36:34.337Z,28.10
2019-03-26T02:39:04.223Z,28.70
2019-03-26T02:41:32.748Z,33.60
2019-03-26T02:44:01.233Z,33.60
2019-03-26T02:46:29.656Z,36.90
2019-03-26T02:48:58.115Z,41.50
2019-03-26T02:51:26.789Z,45.70
2019-03-26T02:53:55.324Z,49.30
2019-03-26T02:56:23.911Z,50.70
2019-03-26T02:58:52.417Z,51.50
2019-03-26T03:01:20.844Z,54.00
2019-03-26T03:03:49.286Z,55.20
2019-03-26T03:06:17.709Z,58.60
2019-03-26T03:08:46.154Z,60.50
2019-03-26T03:11:14.574Z,63.10
2019-03-26T03:13:43.013Z,66.40
2019-03-26T03:16:11.444Z,66.60
2019-03-26T03:18:39.960Z,67.20
2019-03-26T03:21:08.385Z,69.90
2019-03-26T03:23:36.829Z,69.30
2019-03-26T03:26:05.261Z,70.90
2019-03-26T03:28:33.712Z,70.40
2019-03-26T03:31:02.147Z,72.50
2019-03-26T03:33:30.603Z,73.90
2019-03-26T03:35:59.038Z,77.00
2019-03-26T03:38:27.473Z,78.00
2019-03-26T03:40:55.905Z,80.90
2019-03-26T03:43:24.436Z,89.50
2019-03-26T03:45:53.905Z,92.00
2019-03-26T03:48:23.600Z,92.90
2019-03-26T03:50:53.564Z,86.40
2019-03-26T03:53:22.755Z,86.50
2019-03-26T03:55:52.995Z,87.30
2019-03-26T03:58:23.985Z,89.70
2019-03-26T04:00:52.551Z,90.30
2019-03-26T04:03:21.126Z,89.60
2019-03-26T04:05:49.615Z,89.50
2019-03-26T04:08:18.070Z,89.10
2019-03-26T04:10:46.571Z,87.90
2019-03-26T04:13:15.093Z,86.40
2019-03-26T04:15:43.697Z,85.10
2019-03-26T04:18:12.292Z,82.60
2019-03-26T04:20:40.725Z,81.20
2019-03-26T04:23:09.246Z,83.00
2019-03-26T04:25:37.684Z,83.30
2019-03-26T04:28:06.203Z,84.60
2019-03-26T04:30:35.074Z,85.40
2019-03-26T04:33:03.678Z,87.80
2019-03-26T04:35:32.389Z,87.60
2019-03-26T04:38:00.936Z,88.10
2019-03-26T04:40:29.365Z,89.20
2019-03-26T04:42:58.541Z,86.30
2019-03-26T04:45:27.149Z,84.10
2019-03-26T04:47:55.592Z,82.90
2019-03-26T04:50:24.029Z,86.10
2019-03-26T04:52:52.479Z,87.40
2019-03-26T04:55:20.908Z,87.90
2019-03-26T04:57:49.367Z,86.40
2019-03-26T05:00:18.707Z,86.30
2019-03-26T05:02:47.295Z,85.60
2019-03-26T05:05:15.732Z,84.70
2019-03-26T05:07:44.182Z,86.00
2019-03-26T05:10:12.853Z,85.90
2019-03-26T05:12:41.300Z,84.10
2019-03-26T05:15:09.800Z,84.10
2019-03-26T05:17:38.249Z,81.90
2019-03-26T05:20:07.840Z,84.40
2019-03-26T05:22:36.738Z,89.00
2019-03-26T05:25:07.013Z,88.90
2019-03-26T05:27:45.408Z,87.70
2019-03-26T05:30:07.672Z,86.00
2019-03-26T05:32:36.288Z,85.10
2019-03-26T05:35:05.561Z,84.10
2019-03-26T05:37:34.017Z,81.60
2019-03-26T05:40:02.640Z,83.30
2019-03-26T05:42:31.141Z,89.20
2019-03-26T05:44:59.592Z,73.30
2019-03-26T05:47:28.092Z,75.80
2019-03-26T05:49:56.541Z,81.40
2019-03-26T05:52:25.051Z,73.70
2019-03-26T05:54:53.520Z,76.20
2019-03-26T05:57:21.952Z,78.30
2019-03-26T05:59:50.853Z,77.20
2019-03-26T06:02:19.300Z,81.20
2019-03-26T06:04:48.339Z,86.60
2019-03-26T06:07:16.867Z,87.30
2019-03-26T06:09:45.304Z,85.20
2019-03-26T06:12:14.140Z,88.10
2019-03-26T06:14:42.735Z,88.60
2019-03-26T06:17:11.212Z,84.80
2019-03-26T06:19:40.145Z,80.50
2019-03-26T06:22:09.015Z,85.10
2019-03-26T06:24:38.215Z,76.10
2019-03-26T06:27:06.692Z,75.10
2019-03-26T06:29:35.445Z,71.70
2019-03-26T06:32:04.380Z,76.10
2019-03-26T06:34:32.889Z,71.40
2019-03-26T06:37:01.317Z,72.70
2019-03-26T06:39:29.870Z,71.30
2019-03-26T06:41:58.300Z,72.90
2019-03-26T06:44:26.728Z,71.80
2019-03-26T06:46:55.184Z,70.00
2019-03-26T06:49:23.608Z,59.80
2019-03-26T06:51:52.041Z,43.60
2019-03-26T06:54:20.489Z,35.10
2019-03-26T06:56:48.925Z,46.80
2019-03-26T06:59:17.350Z,44.80
2019-03-26T07:01:45.868Z,45.30
2019-03-26T07:04:14.427Z,26.10
2019-03-26T07:06:42.850Z,15.70
2019-03-26T07:09:11.319Z,26.90
2019-03-26T07:11:39.744Z,34.50
2019-03-26T07:14:08.197Z,36.20
2019-03-26T07:16:36.632Z,34.30
2019-03-26T07:19:05.132Z,25.60
2019-03-26T07:21:33.586Z,23.30
2019-03-26T07:24:02.020Z,28.20
2019-03-26T07:26:30.517Z,23.60
2019-03-26T07:28:58.964Z,17.90
2019-03-26T07:31:27.396Z,1.00
2019-03-26T07:33:55.816Z,1.20
2019-03-26T07:36:25.220Z,18.40
2019-03-26T07:38:53.648Z,20.10
2019-03-26T07:41:22.150Z,22.00
2019-03-26T07:43:50.623Z,27.30
2019-03-26T07:46:19.120Z,27.90
2019-03-26T07:48:47.548Z,28.80
2019-03-26T07:51:16.004Z,32.40
2019-03-26T07:53:44.434Z,8.40
2019-03-26T07:56:12.864Z,11.00
2019-03-26T07:58:41.414Z,1.00
2019-03-26T08:01:09.813Z,1.00
2019-03-26T08:03:38.245Z,11.50
2019-03-26T08:06:06.685Z,8.20
2019-03-26T08:08:35.141Z,17.80
2019-03-26T08:11:03.656Z,7.00
2019-03-26T08:13:32.235Z,1.00
2019-03-26T08:16:00.752Z,1.00
2019-03-26T08:18:29.176Z,1.00
2019-03-26T08:20:57.734Z,1.00
2019-03-26T08:23:26.228Z,1.00
2019-03-26T08:25:54.709Z,1.00
2019-03-26T08:28:23.154Z,99.90
2019-03-26T08:30:51.665Z,1.00
2019-03-26T08:33:20.104Z,1.00
2019-03-26T08:35:48.628Z,1.00
2019-03-26T08:38:17.069Z,1.00
2019-03-26T08:40:45.873Z,1.00
2019-03-26T08:43:14.392Z,1.00
2019-03-26T08:45:42.816Z,1.00
2019-03-26T08:48:11.260Z,1.00
2019-03-26T08:50:39.705Z,1.00
2019-03-26T08:53:08.140Z,99.90
2019-03-26T08:55:36.651Z,1.00
2019-03-26T08:58:05.246Z,1.00
2019-03-26T09:00:33.833Z,99.90
2019-03-26T09:03:02.297Z,99.90
2019-03-26T09:05:30.837Z,1.00
2019-03-26T09:07:59.536Z,98.80
2019-03-26T09:10:28.039Z,99.90
2019-03-26T09:12:56.569Z,1.00
2019-03-26T09:15:25.076Z,99.90
2019-03-26T09:17:53.517Z,99.90
2019-03-26T09:20:22.009Z,1.00
2019-03-26T09:22:50.449Z,99.90
2019-03-26T09:25:18.892Z,99.90
2019-03-26T09:27:47.336Z,1.00
2019-03-26T09:30:16.616Z,1.00
2019-03-26T09:32:45.057Z,1.00
2019-03-26T09:35:13.913Z,1.00
2019-03-26T09:37:42.357Z,1.00
2019-03-26T09:40:11.408Z,99.90
2019-03-26T09:42:39.901Z,1.00
2019-03-26T09:45:09.670Z,1.00
2019-03-26T09:47:38.335Z,1.00
2019-03-26T09:50:09.393Z,1.00
2019-03-26T09:52:37.977Z,99.90
2019-03-26T09:55:10.810Z,1.00
2019-03-26T09:57:39.380Z,1.00
2019-03-26T10:00:09.938Z,1.00
2019-03-26T10:02:38.435Z,1.00
2019-03-26T10:05:07.832Z,1.00
2019-03-26T10:07:36.260Z,99.90
2019-03-26T10:10:07.515Z,99.90
2019-03-26T10:12:35.915Z,1.00
2019-03-26T10:15:08.840Z,99.90
2019-03-26T10:17:37.397Z,99.90
2019-03-26T10:20:07.640Z,99.90
2019-03-26T10:22:37.325Z,99.90
2019-03-26T10:25:10.479Z,99.90
2019-03-26T10:27:37.627Z,99.90
2019-03-26T10:30:08.261Z,99.90
2019-03-26T10:32:37.044Z,99.90
2019-03-26T10:35:06.518Z,99.90
2019-03-26T10:37:35.024Z,99.90
2019-03-26T10:40:05.896Z,99.90
2019-03-26T10:42:34.404Z,99.90
2019-03-26T10:45:02.845Z,99.90
2019-03-26T10:47:31.341Z,99.90
2019-03-26T10:49:59.787Z,99.90
2019-03-26T10:52:32.734Z,99.90
2019-03-26T10:54:58.364Z,99.90
2019-03-26T10:57:26.804Z,99.90
2019-03-26T10:59:55.228Z,99.90
2019-03-26T11:02:23.672Z,99.90
2019-03-26T11:04:52.103Z,99.90
2019-03-26T11:07:20.558Z,99.90
2019-03-26T11:09:49.160Z,99.90
2019-03-26T11:12:17.652Z,99.90
2019-03-26T11:14:46.080Z,97.70
2019-03-26T11:17:14.509Z,54.50
2019-03-26T11:19:46.164Z,17.20
2019-03-26T11:22:13.181Z,1.00
2019-03-26T11:24:41.622Z,1.00
2019-03-26T11:27:10.220Z,1.00
2019-03-26T11:29:38.672Z,1.00
2019-03-26T11:32:07.331Z,1.00
2019-03-26T11:34:35.759Z,1.00
2019-03-26T11:37:04.230Z,1.00
2019-03-26T11:39:33.271Z,1.00
2019-03-26T11:42:01.828Z,1.00
2019-03-26T11:44:30.252Z,1.00
2019-03-26T11:46:58.679Z,1.00
2019-03-26T11:49:27.118Z,1.00
2019-03-26T11:51:55.640Z,1.00
2019-03-26T11:54:24.091Z,1.00
2019-03-26T11:56:52.603Z,1.00
2019-03-26T11:59:21.493Z,1.00
2019-03-26T12:01:52.365Z,1.00
2019-03-26T12:04:20.117Z,1.00
2019-03-26T12:06:48.541Z,1.00
2019-03-26T12:09:16.980Z,1.00
2019-03-26T12:11:45.477Z,1.00
2019-03-26T12:14:13.976Z,1.00
2019-03-26T12:16:42.420Z,1.00
2019-03-26T12:19:10.844Z,1.00
2019-03-26T12:21:39.288Z,1.00
2019-03-26T12:24:07.712Z,1.00
2019-03-26T12:26:36.136Z,1.00
2019-03-26T12:29:04.644Z,1.00
2019-03-26T12:31:33.189Z,1.00
2019-03-26T12:34:02.830Z,1.00
2019-03-26T12:36:39.961Z,1.00
2019-03-26T12:39:01.627Z,1.00
2019-03-26T12:41:30.157Z,1.00
2019-03-26T12:43:58.596Z,1.00
2019-03-26T12:46:27.030Z,1.00
2019-03-26T12:48:55.468Z,1.00
2019-03-26T12:51:23.892Z,1.00
2019-03-26T12:53:52.328Z,1.00
2019-03-26T12:56:20.756Z,1.00
2019-03-26T12:58:49.228Z,1.00
2019-03-26T13:01:17.688Z,1.00
2019-03-26T13:03:46.132Z,1.00
2019-03-26T13:06:14.554Z,1.00
2019-03-26T13:11:11.087Z,1.00
2019-03-26T13:13:39.508Z,1.00
2019-03-26T13:16:08.084Z,1.00
2019-03-26T13:18:36.512Z,1.00
2019-03-26T13:21:04.935Z,1.00
2019-03-26T13:23:33.438Z,1.00
2019-03-26T13:26:01.864Z,1.00
2019-03-26T13:28:30.308Z,1.00
2019-03-26T13:30:58.732Z,1.00
2019-03-26T13:33:27.156Z,1.00
2019-03-26T13:35:55.597Z,1.00
2019-03-26T13:38:24.020Z,1.00
2019-03-26T13:40:52.465Z,1.00
2019-03-26T13:43:20.893Z,1.00
2019-03-26T13:45:49.312Z,1.00
2019-03-26T13:48:17.755Z,1.00
2019-03-26T13:50:46.278Z,1.00
2019-03-26T13:53:14.772Z,1.00
2019-03-26T13:55:43.200Z,1.00
2019-03-26T13:58:11.623Z,1.00
2019-03-26T14:00:40.600Z,1.00
2019-03-26T14:03:09.264Z,1.00
2019-03-26T14:05:37.780Z,1.00
2019-03-26T14:08:06.268Z,1.00
2019-03-26T14:10:40.708Z,1.00
2019-03-26T14:13:05.004Z,1.00
2019-03-26T14:15:33.433Z,1.00
2019-03-26T14:18:01.881Z,1.00
2019-03-26T14:20:30.393Z,1.00
2019-03-26T14:22:58.828Z,1.00
2019-03-26T14:25:27.248Z,1.00
2019-03-26T14:27:55.753Z,1.00
2019-03-26T14:30:27.286Z,1.00
2019-03-26T14:32:55.728Z,1.00
2019-03-26T14:35:24.156Z,1.00
2019-03-26T14:37:52.601Z,1.00
2019-03-26T14:40:21.021Z,1.00
2019-03-26T14:42:49.476Z,1.00
2019-03-26T14:45:18.167Z,1.00
2019-03-26T14:47:46.608Z,1.00
2019-03-26T14:50:15.760Z,1.00
2019-03-26T14:52:44.196Z,1.00
2019-03-26T14:55:12.759Z,1.00
2019-03-26T14:57:41.268Z,1.00
2019-03-26T15:00:10.203Z,1.00
2019-03-26T15:02:38.621Z,1.00
2019-03-26T15:05:07.600Z,1.00
2019-03-26T15:07:36.016Z,1.00
2019-03-26T15:10:06.955Z,1.00
2019-03-26T15:12:35.456Z,1.00
2019-03-26T15:15:05.441Z,1.00
2019-03-26T15:17:33.864Z,1.00
2019-03-26T15:20:02.452Z,1.00
2019-03-26T15:22:30.889Z,1.00
2019-03-26T15:24:59.599Z,1.00
2019-03-26T15:27:28.202Z,1.00
2019-03-26T15:29:56.693Z,1.00
2019-03-26T15:32:25.121Z,1.00
2019-03-26T15:34:53.560Z,1.00
2019-03-26T15:37:22.038Z,1.00
2019-03-26T15:39:50.476Z,1.00
2019-03-26T15:42:18.903Z,1.00
2019-03-26T15:44:47.400Z,1.00
2019-03-26T15:47:15.889Z,1.00
2019-03-26T15:49:44.305Z,1.00
2019-03-26T15:52:12.758Z,1.00
2019-03-26T15:54:41.199Z,1.00
2019-03-26T15:57:09.685Z,1.00
2019-03-26T15:59:38.108Z,1.00
2019-03-26T16:02:06.716Z,1.00
2019-03-26T16:04:35.385Z,1.00
2019-03-26T16:07:03.804Z,1.00
2019-03-26T16:09:32.239Z,1.00
2019-03-26T16:12:00.659Z,1.00
2019-03-26T16:14:29.106Z,1.00
2019-03-26T16:16:57.600Z,1.00
2019-03-26T16:19:32.042Z,1.00
2019-03-26T16:21:56.210Z,1.00
2019-03-26T16:24:24.688Z,1.00
2019-03-26T16:26:53.137Z,1.00
2019-03-26T16:29:21.558Z,1.00
2019-03-26T16:31:49.992Z,1.00
2019-03-26T16:34:18.428Z,1.00
2019-03-26T16:36:58.918Z,1.00
2019-03-26T16:39:17.004Z,1.00
2019-03-26T16:41:49.200Z,1.00
2019-03-26T16:44:15.587Z,1.00
2019-03-26T16:46:44.013Z,1.00
2019-03-26T16:49:12.557Z,1.00
2019-03-26T16:51:41.112Z,1.00
2019-03-26T16:54:09.528Z,1.00
2019-03-26T16:56:37.960Z,1.00
2019-03-26T16:59:06.464Z,1.00
2019-03-26T17:01:34.906Z,1.00
2019-03-26T17:04:03.328Z,1.00
2019-03-26T17:06:31.773Z,1.00
2019-03-26T17:09:00.206Z,1.00
2019-03-26T17:11:28.648Z,1.00
2019-03-26T17:13:57.068Z,1.00
2019-03-26T17:16:25.493Z,1.00
2019-03-26T17:18:53.932Z,1.00
2019-03-26T17:21:22.383Z,1.00
2019-03-26T17:23:50.870Z,1.00
2019-03-26T17:26:19.384Z,1.00
2019-03-26T17:28:47.842Z,1.00
2019-03-26T17:31:16.352Z,1.00
2019-03-26T17:33:44.772Z,1.00
2019-03-26T17:36:13.289Z,1.00
2019-03-26T17:38:41.773Z,1.00
2019-03-26T17:41:10.305Z,1.00
2019-03-26T17:43:38.745Z,1.00
2019-03-26T17:46:07.166Z,1.00
2019-03-26T17:48:35.600Z,1.00
2019-03-26T17:51:04.128Z,1.00
2019-03-26T17:53:32.572Z,1.00
2019-03-26T17:56:00.999Z,1.00
2019-03-26T17:58:29.461Z,1.00
2019-03-26T18:00:57.905Z,1.00
2019-03-26T18:03:27.112Z,1.00
2019-03-26T18:05:57.356Z,1.00
2019-03-26T18:08:26.049Z,1.00
2019-03-26T18:10:54.648Z,1.00
2019-03-26T18:13:23.159Z,1.00
2019-03-26T18:15:51.595Z,1.00
2019-03-26T18:18:20.036Z,1.00
2019-03-26T18:20:48.525Z,1.00
2019-03-26T18:23:16.987Z,1.00
2019-03-26T18:25:45.494Z,1.00
2019-03-26T18:28:13.992Z,1.00
2019-03-26T18:30:42.433Z,1.00
2019-03-26T18:33:10.848Z,1.00
2019-03-26T18:35:39.356Z,1.00
2019-03-26T18:38:07.850Z,1.00
2019-03-26T18:40:36.299Z,1.00
2019-03-26T18:43:04.793Z,1.00
2019-03-26T18:45:33.282Z,1.00
2019-03-26T18:48:01.828Z,1.00
2019-03-26T18:50:30.366Z,1.00
2019-03-26T18:52:59.054Z,1.00
2019-03-26T18:55:27.596Z,1.00
2019-03-26T18:57:56.216Z,1.00
2019-03-26T19:00:35.478Z,1.00
2019-03-26T19:03:04.925Z,1.00
2019-03-26T19:05:33.513Z,1.00
2019-03-26T19:08:02.077Z,1.00
2019-03-26T19:10:32.570Z,1.00
2019-03-26T19:13:01.507Z,1.00
2019-03-26T19:15:30.350Z,1.00
2019-03-26T19:17:58.978Z,1.00
2019-03-26T19:20:27.565Z,1.00
2019-03-26T19:22:56.385Z,1.00
2019-03-26T19:25:24.997Z,1.00
2019-03-26T19:27:53.565Z,1.00
2019-03-26T19:30:22.122Z,1.00
2019-03-26T19:32:50.739Z,1.00
2019-03-26T19:35:19.345Z,1.00
2019-03-26T19:37:47.895Z,1.00
2019-03-26T19:40:16.700Z,1.00
2019-03-26T19:42:45.296Z,1.00
2019-03-26T19:45:14.401Z,1.00
2019-03-26T19:47:43.139Z,1.00
2019-03-26T19:50:12.219Z,12.20
2019-03-26T19:52:40.918Z,19.30
2019-03-26T19:55:10.013Z,8.20
2019-03-26T19:57:38.663Z,1.00
2019-03-26T20:00:12.707Z,28.60
2019-03-26T20:02:41.497Z,1.00
2019-03-26T20:05:12.206Z,1.00
2019-03-26T20:07:41.016Z,1.00
2019-03-26T20:10:11.459Z,12.30
2019-03-26T20:12:40.434Z,4.70
2019-03-26T20:15:11.057Z,14.70
2019-03-26T20:17:39.858Z,5.80
2019-03-26T20:20:09.969Z,30.80
2019-03-26T20:22:38.630Z,25.50
2019-03-26T20:25:07.855Z,3.00
2019-03-26T20:27:36.747Z,99.90
2019-03-26T20:30:07.058Z,1.00
2019-03-26T20:32:35.964Z,1.00
2019-03-26T20:35:08.123Z,99.90
2019-03-26T20:37:36.775Z,1.00
2019-03-26T20:40:07.874Z,1.00
2019-03-26T20:42:36.536Z,99.90
2019-03-26T20:45:07.829Z,99.90
2019-03-26T20:47:38.018Z,1.00
2019-03-26T20:50:07.443Z,1.00
2019-03-26T20:52:36.198Z,99.90
2019-03-26T20:55:07.874Z,99.90
2019-03-26T20:57:36.656Z,24.60
2019-03-26T21:00:10.520Z,99.90
2019-03-26T21:02:39.107Z,48.10
2019-03-26T21:05:09.319Z,44.80
2019-03-26T21:07:38.428Z,99.90
2019-03-26T21:10:07.519Z,99.90
2019-03-26T21:12:36.080Z,99.90
2019-03-26T21:15:07.568Z,99.90
2019-03-26T21:17:36.329Z,99.90
2019-03-26T21:20:09.066Z,1.00
2019-03-26T21:22:37.489Z,1.00
2019-03-26T21:25:07.591Z,99.90
2019-03-26T21:27:36.130Z,1.00
2019-03-26T21:30:15.346Z,1.00
2019-03-26T21:32:40.769Z,99.90
2019-03-26T21:35:09.560Z,99.90
2019-03-26T21:37:38.791Z,99.90
2019-03-26T21:40:09.860Z,99.90
2019-03-26T21:42:38.374Z,1.00
2019-03-26T21:45:08.736Z,99.90
2019-03-26T21:47:37.170Z,1.00
2019-03-26T21:50:07.552Z,1.00
2019-03-26T21:52:35.985Z,99.90
2019-03-26T21:55:07.169Z,99.90
2019-03-26T21:57:35.676Z,20.30
2019-03-26T22:00:08.721Z,1.00
2019-03-26T22:02:37.314Z,99.90
2019-03-26T22:05:08.451Z,99.90
2019-03-26T22:07:37.009Z,1.00
2019-03-26T22:10:07.899Z,99.90
2019-03-26T22:12:36.484Z,1.00
2019-03-26T22:15:10.215Z,1.00
2019-03-26T22:17:38.714Z,1.00
2019-03-26T22:20:07.804Z,99.90
2019-03-26T22:22:36.406Z,40.80
2019-03-26T22:25:08.972Z,99.90
2019-03-26T22:27:37.436Z,99.90
2019-03-26T22:30:10.375Z,99.90
2019-03-26T22:32:38.799Z,99.90
2019-03-26T22:35:08.963Z,1.00
2019-03-26T22:37:37.517Z,1.00
2019-03-26T22:40:07.591Z,1.00
2019-03-26T22:42:36.255Z,1.00
2019-03-26T22:45:10.426Z,1.00
2019-03-26T22:47:39.592Z,1.00
2019-03-26T22:50:08.877Z,1.00
2019-03-26T22:52:37.544Z,99.90
2019-03-26T22:55:08.500Z,99.90
2019-03-26T22:57:37.252Z,1.00
2019-03-26T23:00:11.718Z,93.80
2019-03-26T23:02:40.380Z,99.90
2019-03-26T23:05:09.461Z,1.00
2019-03-26T23:07:37.891Z,99.90
2019-03-26T23:10:07.145Z,1.00
2019-03-26T23:12:35.592Z,99.90
2019-03-26T23:15:05.729Z,1.00
2019-03-26T23:17:34.165Z,99.90
2019-03-26T23:20:02.607Z,99.90
2019-03-26T23:22:31.041Z,99.90
2019-03-26T23:24:59.468Z,36.70
2019-03-26T23:27:27.915Z,99.90
2019-03-26T23:29:56.332Z,1.00
2019-03-26T23:32:24.764Z,99.90
2019-03-26T23:34:53.200Z,1.00
2019-03-26T23:37:21.652Z,15.20
2019-03-26T23:39:50.121Z,1.00
2019-03-26T23:42:18.639Z,99.90
2019-03-26T23:44:57.812Z,99.90
2019-03-26T23:47:17.298Z,99.90
2019-03-26T23:49:45.863Z,1.00
2019-03-26T23:52:14.467Z,1.00
2019-03-26T23:54:42.889Z,99.90
2019-03-26T23:57:11.376Z,1.00
2019-03-26T23:59:39.905Z,15.30
